Oakdale, NE (68761)

9:23 AM CDT on September 19, 2014 (GMT -0500)
Deloit 12 south 2 west of Ewing | Change Station
CLOSE
Current Station
Personal Weather Station
Location: Ewing, NE
Elevation: 1965 ft
Nearby Weather Stations

Elev 1965 ft 42.09 °N, 98.38 °W | Updated 2 seconds ago

Mostly Cloudy
Mostly Cloudy
67.6 °F
Feels Like 67.6 °F
N
20.0
Wind Variable Wind from SSW
Gusts 23.0 mph

Today
High -- | Low -- °F
--% Chance of Precip.
Yesterday
High -- | Low -- °F
Precip. -- in
7:16 AM 7:34 PM
Waning Crescent, 19% visible
Pressure 29.86 in
Visibility 10.0 miles
Clouds Scattered Clouds 900 ft
Dew Point 63 °F
Humidity 85%
Rainfall 0.00 in
Snow Depth Not available.
UV 1.2 out of 12
Pollen 7.20 out of 12
Air Quality Not available.
Flu Activity Not available.
METAR KBVN 191415Z AUTO 18012G19KT 10SM SCT009 19/16 A2986 RMK AO2 T01860162

More Conditions Fewer Conditions

Pressure 29.86 in
Visibility 10.0 miles
Clouds Scattered Clouds 900 ft
Dew Point 63 °F
Humidity 85%
Rainfall 0.00 in
Snow Depth Not available.
UV 1.2 out of 12
Pollen 7.20 out of 12
Air Quality Not available.
Flu Activity Not available.
METAR KBVN 191415Z AUTO 18012G19KT 10SM SCT009 19/16 A2986 RMK AO2 T01860162

More Conditions Fewer Conditions

10-Day Weather Forecast

Almanac

Astronomy

Sep. 19, 2014 Rise Set
Actual Time 7:16 AM CDT 7:34 PM CDT
Civil Twilight 6:48 AM CDT 8:02 PM CDT
Nautical Twilight 6:15 AM CDT 8:34 PM CDT
Astronomical Twilight 5:41 AM CDT 9:08 PM CDT
Moon 2:59 AM CDT 5:06 PM CDT
Length of Visible Light 13h 14m
Length of Day
12h 18m
Tomorrow will be 2m 49s shorter.
Waning Crescent, 19% of the Moon is Illuminated
Today
Waning Crescent
Sep 24
New
Oct 1
First Quarter
Oct 8
Full
Oct 15
Last Quarter

Today's Extremes

State Highs State Lows

Community

WunderPhotos

Upload Photos

1,754,624 photos uploaded!

WunderBlogs® & News

Nearby

Snow Depth

Station Depth Elevation
No new snow has been reported.

Earthquake Activity

City Distance Mag. Time & Date
No recent earthquake activity has been reported nearby.
Minimum magnitude displayed is 2.5.

Coastal Water Temperatures

Place Temperature
No Stations Reporting

Nearby Weather Stations